sensor_id;sensor_type;location;lat;lon;timestamp;P1;durP1;ratioP1;P2;durP2;ratioP2
28724;SDS011;43472;48.980;9.646;2022-09-23T00:02:50;5.32;;;3.72;;
28724;SDS011;43472;48.980;9.646;2022-09-23T00:07:52;4.40;;;3.38;;
28724;SDS011;43472;48.980;9.646;2022-09-23T00:12:55;5.32;;;3.55;;
28724;SDS011;43472;48.980;9.646;2022-09-23T00:17:58;4.80;;;3.38;;
28724;SDS011;43472;48.980;9.646;2022-09-23T00:23:02;5.15;;;3.45;;
28724;SDS011;43472;48.980;9.646;2022-09-23T00:28:04;5.32;;;3.20;;
28724;SDS011;43472;48.980;9.646;2022-09-23T00:33:06;4.07;;;3.10;;
28724;SDS011;43472;48.980;9.646;2022-09-23T00:38:07;5.05;;;3.53;;
28724;SDS011;43472;48.980;9.646;2022-09-23T00:43:10;4.88;;;3.40;;
28724;SDS011;43472;48.980;9.646;2022-09-23T00:48:15;7.03;;;3.17;;
28724;SDS011;43472;48.980;9.646;2022-09-23T00:53:20;3.00;;;2.67;;
28724;SDS011;43472;48.980;9.646;2022-09-23T00:58:26;9.90;;;4.97;;
28724;SDS011;43472;48.980;9.646;2022-09-23T01:03:31;5.60;;;3.85;;
28724;SDS011;43472;48.980;9.646;2022-09-23T01:08:33;3.92;;;3.10;;
28724;SDS011;43472;48.980;9.646;2022-09-23T01:35:25;6.90;;;5.10;;
28724;SDS011;43472;48.980;9.646;2022-09-23T01:40:44;5.85;;;3.70;;
28724;SDS011;43472;48.980;9.646;2022-09-23T01:46:10;3.88;;;3.47;;
28724;SDS011;43472;48.980;9.646;2022-09-23T01:51:24;5.38;;;3.05;;
28724;SDS011;43472;48.980;9.646;2022-09-23T01:56:46;4.95;;;3.58;;
28724;SDS011;43472;48.980;9.646;2022-09-23T02:01:53;4.00;;;3.23;;
28724;SDS011;43472;48.980;9.646;2022-09-23T02:07:50;4.03;;;2.95;;
28724;SDS011;43472;48.980;9.646;2022-09-23T02:12:35;5.20;;;3.40;;
28724;SDS011;43472;48.980;9.646;2022-09-23T02:17:40;6.72;;;3.55;;
28724;SDS011;43472;48.980;9.646;2022-09-23T02:27:56;5.32;;;3.25;;
28724;SDS011;43472;48.980;9.646;2022-09-23T02:33:27;7.45;;;4.70;;
28724;SDS011;43472;48.980;9.646;2022-09-23T02:38:38;4.43;;;3.25;;
28724;SDS011;43472;48.980;9.646;2022-09-23T02:43:47;3.92;;;2.97;;
28724;SDS011;43472;48.980;9.646;2022-09-23T02:48:58;6.07;;;3.40;;
28724;SDS011;43472;48.980;9.646;2022-09-23T02:54:17;7.03;;;4.50;;
28724;SDS011;43472;48.980;9.646;2022-09-23T02:59:21;5.07;;;3.20;;
28724;SDS011;43472;48.980;9.646;2022-09-23T03:04:27;6.40;;;4.20;;
28724;SDS011;43472;48.980;9.646;2022-09-23T03:15:07;6.90;;;4.13;;
28724;SDS011;43472;48.980;9.646;2022-09-23T03:20:32;6.68;;;4.63;;
28724;SDS011;43472;48.980;9.646;2022-09-23T03:25:43;8.27;;;3.58;;
28724;SDS011;43472;48.980;9.646;2022-09-23T03:30:50;5.03;;;3.60;;
28724;SDS011;43472;48.980;9.646;2022-09-23T03:35:54;7.43;;;3.20;;
28724;SDS011;43472;48.980;9.646;2022-09-23T03:41:24;5.50;;;3.15;;
28724;SDS011;43472;48.980;9.646;2022-09-23T03:46:32;4.53;;;2.90;;
28724;SDS011;43472;48.980;9.646;2022-09-23T03:51:35;6.38;;;3.05;;
28724;SDS011;43472;48.980;9.646;2022-09-23T03:56:42;10.95;;;3.13;;
28724;SDS011;43472;48.980;9.646;2022-09-23T04:01:44;5.20;;;3.72;;
28724;SDS011;43472;48.980;9.646;2022-09-23T04:06:47;4.60;;;3.65;;
28724;SDS011;43472;48.980;9.646;2022-09-23T04:11:49;5.70;;;4.43;;
28724;SDS011;43472;48.980;9.646;2022-09-23T04:16:51;5.13;;;3.50;;
28724;SDS011;43472;48.980;9.646;2022-09-23T04:21:54;7.55;;;3.92;;
28724;SDS011;43472;48.980;9.646;2022-09-23T04:26:56;4.88;;;3.35;;
28724;SDS011;43472;48.980;9.646;2022-09-23T04:31:58;3.80;;;3.38;;
28724;SDS011;43472;48.980;9.646;2022-09-23T04:37:01;5.65;;;3.80;;
28724;SDS011;43472;48.980;9.646;2022-09-23T04:42:03;6.35;;;4.05;;
28724;SDS011;43472;48.980;9.646;2022-09-23T04:47:05;4.82;;;2.83;;
28724;SDS011;43472;48.980;9.646;2022-09-23T04:52:07;4.88;;;3.00;;
28724;SDS011;43472;48.980;9.646;2022-09-23T04:57:09;8.35;;;3.53;;
28724;SDS011;43472;48.980;9.646;2022-09-23T05:02:11;4.35;;;3.10;;
28724;SDS011;43472;48.980;9.646;2022-09-23T05:07:14;4.30;;;3.10;;
28724;SDS011;43472;48.980;9.646;2022-09-23T05:12:18;3.08;;;2.63;;
28724;SDS011;43472;48.980;9.646;2022-09-23T05:17:20;3.72;;;2.95;;
28724;SDS011;43472;48.980;9.646;2022-09-23T05:22:22;5.80;;;3.00;;
28724;SDS011;43472;48.980;9.646;2022-09-23T05:27:26;5.68;;;3.15;;
28724;SDS011;43472;48.980;9.646;2022-09-23T05:32:28;4.68;;;3.13;;
28724;SDS011;43472;48.980;9.646;2022-09-23T05:37:31;5.10;;;3.40;;
28724;SDS011;43472;48.980;9.646;2022-09-23T05:42:33;7.30;;;4.78;;
28724;SDS011;43472;48.980;9.646;2022-09-23T05:47:36;6.57;;;4.38;;
28724;SDS011;43472;48.980;9.646;2022-09-23T05:52:38;3.35;;;2.90;;
28724;SDS011;43472;48.980;9.646;2022-09-23T05:57:41;5.00;;;3.30;;
28724;SDS011;43472;48.980;9.646;2022-09-23T06:02:43;6.47;;;4.35;;
28724;SDS011;43472;48.980;9.646;2022-09-23T06:07:45;4.72;;;3.58;;
28724;SDS011;43472;48.980;9.646;2022-09-23T06:12:47;19.52;;;8.23;;
28724;SDS011;43472;48.980;9.646;2022-09-23T06:17:50;12.18;;;7.43;;
28724;SDS011;43472;48.980;9.646;2022-09-23T06:22:52;5.93;;;4.53;;
28724;SDS011;43472;48.980;9.646;2022-09-23T06:27:55;9.93;;;6.57;;
28724;SDS011;43472;48.980;9.646;2022-09-23T06:32:57;21.20;;;14.30;;
28724;SDS011;43472;48.980;9.646;2022-09-23T06:38:01;23.42;;;12.18;;
28724;SDS011;43472;48.980;9.646;2022-09-23T06:43:04;19.40;;;13.65;;
28724;SDS011;43472;48.980;9.646;2022-09-23T06:48:06;13.85;;;10.20;;
28724;SDS011;43472;48.980;9.646;2022-09-23T06:53:08;23.60;;;14.43;;
28724;SDS011;43472;48.980;9.646;2022-09-23T06:58:10;18.58;;;10.63;;
28724;SDS011;43472;48.980;9.646;2022-09-23T07:03:12;15.98;;;9.38;;
28724;SDS011;43472;48.980;9.646;2022-09-23T07:08:13;15.43;;;9.35;;
28724;SDS011;43472;48.980;9.646;2022-09-23T07:13:16;19.42;;;9.23;;
28724;SDS011;43472;48.980;9.646;2022-09-23T07:18:18;17.50;;;7.60;;
28724;SDS011;43472;48.980;9.646;2022-09-23T07:23:24;19.90;;;7.28;;
28724;SDS011;43472;48.980;9.646;2022-09-23T07:28:26;16.90;;;7.18;;
28724;SDS011;43472;48.980;9.646;2022-09-23T07:33:29;20.88;;;6.82;;
28724;SDS011;43472;48.980;9.646;2022-09-23T07:38:33;12.07;;;6.30;;
28724;SDS011;43472;48.980;9.646;2022-09-23T07:43:36;21.33;;;10.38;;
28724;SDS011;43472;48.980;9.646;2022-09-23T07:48:41;15.27;;;8.88;;
28724;SDS011;43472;48.980;9.646;2022-09-23T07:53:45;14.00;;;8.75;;
28724;SDS011;43472;48.980;9.646;2022-09-23T07:58:48;16.50;;;8.15;;
28724;SDS011;43472;48.980;9.646;2022-09-23T08:04:02;9.52;;;6.32;;
28724;SDS011;43472;48.980;9.646;2022-09-23T08:09:05;9.98;;;6.28;;
28724;SDS011;43472;48.980;9.646;2022-09-23T08:14:08;7.35;;;5.40;;
28724;SDS011;43472;48.980;9.646;2022-09-23T08:19:11;20.85;;;5.25;;
28724;SDS011;43472;48.980;9.646;2022-09-23T08:24:14;16.75;;;4.15;;
28724;SDS011;43472;48.980;9.646;2022-09-23T08:29:19;6.13;;;3.25;;
28724;SDS011;43472;48.980;9.646;2022-09-23T08:34:22;7.25;;;3.20;;
28724;SDS011;43472;48.980;9.646;2022-09-23T08:39:27;5.68;;;3.63;;
28724;SDS011;43472;48.980;9.646;2022-09-23T08:50:12;3.17;;;2.17;;
28724;SDS011;43472;48.980;9.646;2022-09-23T08:55:19;6.10;;;2.92;;
28724;SDS011;43472;48.980;9.646;2022-09-23T09:00:32;10.43;;;1.83;;
28724;SDS011;43472;48.980;9.646;2022-09-23T09:05:39;4.20;;;1.45;;
28724;SDS011;43472;48.980;9.646;2022-09-23T09:10:41;1.10;;;1.00;;
28724;SDS011;43472;48.980;9.646;2022-09-23T09:15:49;2.67;;;1.42;;
28724;SDS011;43472;48.980;9.646;2022-09-23T09:21:12;1.90;;;1.58;;
28724;SDS011;43472;48.980;9.646;2022-09-23T09:31:45;2.95;;;1.45;;
28724;SDS011;43472;48.980;9.646;2022-09-23T09:36:58;2.65;;;1.65;;
28724;SDS011;43472;48.980;9.646;2022-09-23T09:42:08;4.50;;;1.85;;
28724;SDS011;43472;48.980;9.646;2022-09-23T09:52:40;2.03;;;1.17;;
28724;SDS011;43472;48.980;9.646;2022-09-23T09:57:46;0.80;;;0.77;;
28724;SDS011;43472;48.980;9.646;2022-09-23T10:02:52;2.35;;;1.35;;
28724;SDS011;43472;48.980;9.646;2022-09-23T10:08:19;1.85;;;1.65;;
28724;SDS011;43472;48.980;9.646;2022-09-23T10:13:28;3.05;;;1.10;;
28724;SDS011;43472;48.980;9.646;2022-09-23T10:18:37;4.75;;;1.40;;
28724;SDS011;43472;48.980;9.646;2022-09-23T10:23:49;5.80;;;1.50;;
28724;SDS011;43472;48.980;9.646;2022-09-23T10:28:53;2.22;;;1.35;;
28724;SDS011;43472;48.980;9.646;2022-09-23T10:39:03;1.85;;;1.08;;
28724;SDS011;43472;48.980;9.646;2022-09-23T10:50:06;2.92;;;1.45;;
28724;SDS011;43472;48.980;9.646;2022-09-23T10:55:24;1.58;;;1.08;;
28724;SDS011;43472;48.980;9.646;2022-09-23T11:16:51;3.63;;;1.02;;
28724;SDS011;43472;48.980;9.646;2022-09-23T11:28:01;4.70;;;1.17;;
28724;SDS011;43472;48.980;9.646;2022-09-23T11:33:16;2.70;;;1.73;;
28724;SDS011;43472;48.980;9.646;2022-09-23T11:38:34;1.42;;;0.98;;
28724;SDS011;43472;48.980;9.646;2022-09-23T11:43:41;2.63;;;1.35;;
28724;SDS011;43472;48.980;9.646;2022-09-23T11:53:56;1.10;;;0.95;;
28724;SDS011;43472;48.980;9.646;2022-09-23T12:04:43;4.47;;;1.67;;
28724;SDS011;43472;48.980;9.646;2022-09-23T12:10:00;2.92;;;1.20;;
28724;SDS011;43472;48.980;9.646;2022-09-23T12:15:07;2.47;;;1.45;;
28724;SDS011;43472;48.980;9.646;2022-09-23T12:20:21;2.97;;;1.20;;
28724;SDS011;43472;48.980;9.646;2022-09-23T12:25:45;4.90;;;1.70;;
28724;SDS011;43472;48.980;9.646;2022-09-23T12:30:53;5.25;;;1.33;;
28724;SDS011;43472;48.980;9.646;2022-09-23T12:36:03;1.52;;;1.33;;
28724;SDS011;43472;48.980;9.646;2022-09-23T12:46:26;3.53;;;1.25;;
28724;SDS011;43472;48.980;9.646;2022-09-23T12:51:29;3.90;;;1.48;;
28724;SDS011;43472;48.980;9.646;2022-09-23T13:01:36;3.00;;;1.50;;
28724;SDS011;43472;48.980;9.646;2022-09-23T13:07:03;4.30;;;2.35;;
28724;SDS011;43472;48.980;9.646;2022-09-23T13:12:18;5.75;;;1.98;;
28724;SDS011;43472;48.980;9.646;2022-09-23T13:17:29;2.75;;;1.60;;
28724;SDS011;43472;48.980;9.646;2022-09-23T13:27:54;3.47;;;1.42;;
28724;SDS011;43472;48.980;9.646;2022-09-23T13:33:18;7.93;;;1.58;;
28724;SDS011;43472;48.980;9.646;2022-09-23T13:38:31;4.68;;;1.30;;
28724;SDS011;43472;48.980;9.646;2022-09-23T13:43:35;2.95;;;1.60;;
28724;SDS011;43472;48.980;9.646;2022-09-23T13:48:42;3.25;;;1.50;;
28724;SDS011;43472;48.980;9.646;2022-09-23T13:53:52;5.65;;;1.55;;
28724;SDS011;43472;48.980;9.646;2022-09-23T14:04:26;6.47;;;1.85;;
28724;SDS011;43472;48.980;9.646;2022-09-23T14:09:28;6.63;;;1.50;;
28724;SDS011;43472;48.980;9.646;2022-09-23T14:14:31;4.60;;;1.80;;
28724;SDS011;43472;48.980;9.646;2022-09-23T14:19:37;3.47;;;1.50;;
28724;SDS011;43472;48.980;9.646;2022-09-23T14:24:42;9.43;;;2.75;;
28724;SDS011;43472;48.980;9.646;2022-09-23T14:29:44;3.60;;;1.42;;
28724;SDS011;43472;48.980;9.646;2022-09-23T14:40:04;4.57;;;1.73;;
28724;SDS011;43472;48.980;9.646;2022-09-23T14:45:16;4.82;;;1.63;;
28724;SDS011;43472;48.980;9.646;2022-09-23T14:50:22;3.08;;;1.48;;
28724;SDS011;43472;48.980;9.646;2022-09-23T14:55:48;2.85;;;1.60;;
28724;SDS011;43472;48.980;9.646;2022-09-23T15:00:53;2.70;;;1.60;;
28724;SDS011;43472;48.980;9.646;2022-09-23T15:05:58;3.75;;;1.50;;
28724;SDS011;43472;48.980;9.646;2022-09-23T15:11:09;2.40;;;1.52;;
28724;SDS011;43472;48.980;9.646;2022-09-23T15:16:13;3.17;;;1.70;;
28724;SDS011;43472;48.980;9.646;2022-09-23T15:21:16;6.82;;;1.67;;
28724;SDS011;43472;48.980;9.646;2022-09-23T15:31:43;5.80;;;1.83;;
28724;SDS011;43472;48.980;9.646;2022-09-23T15:36:45;3.97;;;1.38;;
28724;SDS011;43472;48.980;9.646;2022-09-23T15:41:47;9.00;;;2.85;;
28724;SDS011;43472;48.980;9.646;2022-09-23T15:46:49;1.85;;;1.35;;
28724;SDS011;43472;48.980;9.646;2022-09-23T15:51:52;5.07;;;1.77;;
28724;SDS011;43472;48.980;9.646;2022-09-23T15:56:54;6.53;;;3.17;;
28724;SDS011;43472;48.980;9.646;2022-09-23T16:01:57;5.72;;;3.00;;
28724;SDS011;43472;48.980;9.646;2022-09-23T16:07:04;2.30;;;1.60;;
28724;SDS011;43472;48.980;9.646;2022-09-23T16:12:06;3.92;;;1.65;;
28724;SDS011;43472;48.980;9.646;2022-09-23T16:17:11;6.30;;;2.25;;
28724;SDS011;43472;48.980;9.646;2022-09-23T16:22:14;7.88;;;1.95;;
28724;SDS011;43472;48.980;9.646;2022-09-23T16:27:16;3.45;;;1.70;;
28724;SDS011;43472;48.980;9.646;2022-09-23T16:32:19;7.28;;;2.72;;
28724;SDS011;43472;48.980;9.646;2022-09-23T16:37:22;5.22;;;2.40;;
28724;SDS011;43472;48.980;9.646;2022-09-23T16:42:25;3.22;;;2.22;;
28724;SDS011;43472;48.980;9.646;2022-09-23T16:47:27;3.20;;;2.17;;
28724;SDS011;43472;48.980;9.646;2022-09-23T16:52:29;3.50;;;1.80;;
28724;SDS011;43472;48.980;9.646;2022-09-23T16:57:31;2.63;;;1.83;;
28724;SDS011;43472;48.980;9.646;2022-09-23T17:02:33;6.57;;;1.60;;
28724;SDS011;43472;48.980;9.646;2022-09-23T17:07:53;13.55;;;4.55;;
28724;SDS011;43472;48.980;9.646;2022-09-23T17:12:55;13.00;;;5.78;;
28724;SDS011;43472;48.980;9.646;2022-09-23T17:17:59;25.75;;;10.95;;
28724;SDS011;43472;48.980;9.646;2022-09-23T17:23:03;35.90;;;16.58;;
28724;SDS011;43472;48.980;9.646;2022-09-23T17:28:06;6.70;;;3.55;;
28724;SDS011;43472;48.980;9.646;2022-09-23T17:33:08;10.30;;;3.13;;
28724;SDS011;43472;48.980;9.646;2022-09-23T17:38:11;4.55;;;2.67;;
28724;SDS011;43472;48.980;9.646;2022-09-23T17:43:13;7.15;;;3.95;;
28724;SDS011;43472;48.980;9.646;2022-09-23T17:48:15;22.70;;;9.43;;
28724;SDS011;43472;48.980;9.646;2022-09-23T17:53:20;8.80;;;4.20;;
28724;SDS011;43472;48.980;9.646;2022-09-23T17:58:23;11.77;;;4.70;;
28724;SDS011;43472;48.980;9.646;2022-09-23T18:03:29;10.05;;;5.22;;
28724;SDS011;43472;48.980;9.646;2022-09-23T18:08:31;11.32;;;4.30;;
28724;SDS011;43472;48.980;9.646;2022-09-23T18:13:34;5.78;;;3.58;;
28724;SDS011;43472;48.980;9.646;2022-09-23T18:18:36;8.15;;;2.75;;
28724;SDS011;43472;48.980;9.646;2022-09-23T18:23:38;6.93;;;4.22;;
28724;SDS011;43472;48.980;9.646;2022-09-23T18:28:40;12.75;;;6.75;;
28724;SDS011;43472;48.980;9.646;2022-09-23T18:33:47;8.93;;;5.28;;
28724;SDS011;43472;48.980;9.646;2022-09-23T18:38:52;24.33;;;11.63;;
28724;SDS011;43472;48.980;9.646;2022-09-23T18:43:54;19.63;;;8.15;;
28724;SDS011;43472;48.980;9.646;2022-09-23T18:48:56;15.35;;;8.38;;
28724;SDS011;43472;48.980;9.646;2022-09-23T18:54:17;9.88;;;5.82;;
28724;SDS011;43472;48.980;9.646;2022-09-23T18:59:20;12.35;;;7.40;;
28724;SDS011;43472;48.980;9.646;2022-09-23T19:04:25;8.50;;;5.07;;
28724;SDS011;43472;48.980;9.646;2022-09-23T19:09:27;12.43;;;4.25;;
28724;SDS011;43472;48.980;9.646;2022-09-23T19:14:29;7.78;;;5.25;;
28724;SDS011;43472;48.980;9.646;2022-09-23T19:19:31;12.43;;;6.05;;
28724;SDS011;43472;48.980;9.646;2022-09-23T19:24:33;14.30;;;7.10;;
28724;SDS011;43472;48.980;9.646;2022-09-23T19:29:34;19.17;;;9.40;;
28724;SDS011;43472;48.980;9.646;2022-09-23T19:34:39;15.93;;;8.75;;
28724;SDS011;43472;48.980;9.646;2022-09-23T19:39:41;14.30;;;6.63;;
28724;SDS011;43472;48.980;9.646;2022-09-23T19:44:44;11.57;;;5.47;;
28724;SDS011;43472;48.980;9.646;2022-09-23T19:49:46;8.30;;;5.38;;
28724;SDS011;43472;48.980;9.646;2022-09-23T19:54:49;18.80;;;11.95;;
28724;SDS011;43472;48.980;9.646;2022-09-23T19:59:51;15.85;;;9.30;;
28724;SDS011;43472;48.980;9.646;2022-09-23T20:04:53;20.23;;;10.40;;
28724;SDS011;43472;48.980;9.646;2022-09-23T20:09:54;21.02;;;11.07;;
28724;SDS011;43472;48.980;9.646;2022-09-23T20:14:56;22.90;;;11.57;;
28724;SDS011;43472;48.980;9.646;2022-09-23T20:19:59;23.17;;;13.27;;
28724;SDS011;43472;48.980;9.646;2022-09-23T20:25:01;19.25;;;11.88;;
28724;SDS011;43472;48.980;9.646;2022-09-23T20:30:07;19.92;;;11.05;;
28724;SDS011;43472;48.980;9.646;2022-09-23T20:35:09;16.90;;;8.10;;
28724;SDS011;43472;48.980;9.646;2022-09-23T20:40:11;13.60;;;7.18;;
28724;SDS011;43472;48.980;9.646;2022-09-23T20:45:13;11.60;;;6.15;;
28724;SDS011;43472;48.980;9.646;2022-09-23T20:50:16;8.23;;;5.57;;
28724;SDS011;43472;48.980;9.646;2022-09-23T20:55:19;14.93;;;7.85;;
28724;SDS011;43472;48.980;9.646;2022-09-23T21:00:21;13.43;;;6.53;;
28724;SDS011;43472;48.980;9.646;2022-09-23T21:05:23;13.68;;;6.38;;
28724;SDS011;43472;48.980;9.646;2022-09-23T21:10:25;7.72;;;5.07;;
28724;SDS011;43472;48.980;9.646;2022-09-23T21:15:26;10.75;;;5.60;;
28724;SDS011;43472;48.980;9.646;2022-09-23T21:20:28;10.98;;;6.03;;
28724;SDS011;43472;48.980;9.646;2022-09-23T21:25:31;9.77;;;4.90;;
28724;SDS011;43472;48.980;9.646;2022-09-23T21:30:36;9.45;;;5.53;;
28724;SDS011;43472;48.980;9.646;2022-09-23T21:35:38;9.93;;;6.15;;
28724;SDS011;43472;48.980;9.646;2022-09-23T21:40:40;9.63;;;6.18;;
28724;SDS011;43472;48.980;9.646;2022-09-23T21:45:59;12.95;;;5.50;;
28724;SDS011;43472;48.980;9.646;2022-09-23T21:51:03;9.95;;;5.32;;
28724;SDS011;43472;48.980;9.646;2022-09-23T21:56:08;6.90;;;4.68;;
28724;SDS011;43472;48.980;9.646;2022-09-23T22:01:13;8.40;;;5.22;;
28724;SDS011;43472;48.980;9.646;2022-09-23T22:06:18;10.73;;;5.68;;
28724;SDS011;43472;48.980;9.646;2022-09-23T22:11:25;7.68;;;5.47;;
28724;SDS011;43472;48.980;9.646;2022-09-23T22:16:47;7.47;;;4.93;;
28724;SDS011;43472;48.980;9.646;2022-09-23T22:21:49;14.30;;;6.72;;
28724;SDS011;43472;48.980;9.646;2022-09-23T22:26:51;16.40;;;8.02;;
28724;SDS011;43472;48.980;9.646;2022-09-23T22:31:53;11.23;;;6.35;;
28724;SDS011;43472;48.980;9.646;2022-09-23T22:37:15;9.40;;;4.72;;
28724;SDS011;43472;48.980;9.646;2022-09-23T22:42:19;6.00;;;4.18;;
28724;SDS011;43472;48.980;9.646;2022-09-23T22:47:22;6.97;;;4.22;;
28724;SDS011;43472;48.980;9.646;2022-09-23T22:52:24;10.52;;;5.18;;
28724;SDS011;43472;48.980;9.646;2022-09-23T22:57:26;7.35;;;5.05;;
28724;SDS011;43472;48.980;9.646;2022-09-23T23:02:28;8.68;;;4.53;;
28724;SDS011;43472;48.980;9.646;2022-09-23T23:07:33;8.18;;;5.20;;
28724;SDS011;43472;48.980;9.646;2022-09-23T23:12:36;24.33;;;11.48;;
28724;SDS011;43472;48.980;9.646;2022-09-23T23:17:53;9.05;;;5.05;;
28724;SDS011;43472;48.980;9.646;2022-09-23T23:22:59;10.25;;;5.05;;
28724;SDS011;43472;48.980;9.646;2022-09-23T23:28:02;13.02;;;6.60;;
28724;SDS011;43472;48.980;9.646;2022-09-23T23:33:05;8.93;;;5.53;;
28724;SDS011;43472;48.980;9.646;2022-09-23T23:38:07;18.05;;;7.82;;
28724;SDS011;43472;48.980;9.646;2022-09-23T23:43:12;16.63;;;8.95;;
28724;SDS011;43472;48.980;9.646;2022-09-23T23:48:14;42.47;;;18.23;;
28724;SDS011;43472;48.980;9.646;2022-09-23T23:53:16;12.13;;;7.60;;
28724;SDS011;43472;48.980;9.646;2022-09-23T23:58:19;13.07;;;6.63;;
